sensor_id;sensor_type;location;lat;lon;timestamp;temperature;humidity
68511;SHT31;55512;50.102;19.958;2023-05-10T00:01:58;9.70;49.92
68511;SHT31;55512;50.102;19.958;2023-05-10T00:04:23;9.66;49.94
68511;SHT31;55512;50.102;19.958;2023-05-10T00:06:52;9.65;49.97
68511;SHT31;55512;50.102;19.958;2023-05-10T00:09:18;9.61;50.07
68511;SHT31;55512;50.102;19.958;2023-05-10T00:11:44;9.60;50.15
68511;SHT31;55512;50.102;19.958;2023-05-10T00:14:09;9.57;50.22
68511;SHT31;55512;50.102;19.958;2023-05-10T00:16:36;9.55;50.31
68511;SHT31;55512;50.102;19.958;2023-05-10T00:19:02;9.53;50.40
68511;SHT31;55512;50.102;19.958;2023-05-10T00:21:28;9.52;50.38
68511;SHT31;55512;50.102;19.958;2023-05-10T00:23:53;9.48;50.39
68511;SHT31;55512;50.102;19.958;2023-05-10T00:26:20;9.46;50.43
68511;SHT31;55512;50.102;19.958;2023-05-10T00:28:46;9.42;50.51
68511;SHT31;55512;50.102;19.958;2023-05-10T00:31:11;9.40;50.57
68511;SHT31;55512;50.102;19.958;2023-05-10T00:33:37;9.37;50.60
68511;SHT31;55512;50.102;19.958;2023-05-10T00:36:02;9.33;50.63
68511;SHT31;55512;50.102;19.958;2023-05-10T00:38:28;9.31;50.72
68511;SHT31;55512;50.102;19.958;2023-05-10T00:40:54;9.29;50.78
68511;SHT31;55512;50.102;19.958;2023-05-10T00:43:19;9.28;50.80
68511;SHT31;55512;50.102;19.958;2023-05-10T00:45:45;9.27;50.83
68511;SHT31;55512;50.102;19.958;2023-05-10T00:48:11;9.26;50.88
68511;SHT31;55512;50.102;19.958;2023-05-10T00:50:37;9.23;50.99
68511;SHT31;55512;50.102;19.958;2023-05-10T00:53:03;9.22;51.01
68511;SHT31;55512;50.102;19.958;2023-05-10T00:55:29;9.19;51.07
68511;SHT31;55512;50.102;19.958;2023-05-10T00:57:56;9.17;51.16
68511;SHT31;55512;50.102;19.958;2023-05-10T01:00:21;9.16;51.20
68511;SHT31;55512;50.102;19.958;2023-05-10T01:02:47;9.13;51.25
68511;SHT31;55512;50.102;19.958;2023-05-10T01:05:14;9.10;51.37
68511;SHT31;55512;50.102;19.958;2023-05-10T01:07:40;9.08;51.47
68511;SHT31;55512;50.102;19.958;2023-05-10T01:10:06;9.06;51.42
68511;SHT31;55512;50.102;19.958;2023-05-10T01:12:37;9.05;51.48
68511;SHT31;55512;50.102;19.958;2023-05-10T01:15:06;9.03;51.51
68511;SHT31;55512;50.102;19.958;2023-05-10T01:17:35;9.01;51.51
68511;SHT31;55512;50.102;19.958;2023-05-10T01:20:05;8.99;51.62
68511;SHT31;55512;50.102;19.958;2023-05-10T01:23:36;8.97;51.78
68511;SHT31;55512;50.102;19.958;2023-05-10T01:28:58;8.91;51.87
68511;SHT31;55512;50.102;19.958;2023-05-10T01:38:04;8.83;52.17
68511;SHT31;55512;50.102;19.958;2023-05-10T01:40:45;8.79;52.24
68511;SHT31;55512;50.102;19.958;2023-05-10T01:43:30;8.76;52.30
68511;SHT31;55512;50.102;19.958;2023-05-10T01:46:08;8.74;52.42
68511;SHT31;55512;50.102;19.958;2023-05-10T01:48:47;8.71;52.50
68511;SHT31;55512;50.102;19.958;2023-05-10T01:51:17;8.68;52.57
68511;SHT31;55512;50.102;19.958;2023-05-10T01:53:51;8.65;52.68
68511;SHT31;55512;50.102;19.958;2023-05-10T01:56:25;8.62;52.73
68511;SHT31;55512;50.102;19.958;2023-05-10T01:58:53;8.60;52.87
68511;SHT31;55512;50.102;19.958;2023-05-10T02:01:21;8.57;53.02
68511;SHT31;55512;50.102;19.958;2023-05-10T02:03:47;8.54;53.20
68511;SHT31;55512;50.102;19.958;2023-05-10T02:06:16;8.53;53.34
68511;SHT31;55512;50.102;19.958;2023-05-10T02:08:45;8.52;53.33
68511;SHT31;55512;50.102;19.958;2023-05-10T02:11:14;8.49;53.32
68511;SHT31;55512;50.102;19.958;2023-05-10T02:13:40;8.46;53.50
68511;SHT31;55512;50.102;19.958;2023-05-10T02:16:08;8.44;53.57
68511;SHT31;55512;50.102;19.958;2023-05-10T02:18:36;8.41;53.57
68511;SHT31;55512;50.102;19.958;2023-05-10T02:21:03;8.37;53.64
68511;SHT31;55512;50.102;19.958;2023-05-10T02:23:29;8.35;53.74
68511;SHT31;55512;50.102;19.958;2023-05-10T02:25:56;8.34;53.81
68511;SHT31;55512;50.102;19.958;2023-05-10T02:28:23;8.32;53.85
68511;SHT31;55512;50.102;19.958;2023-05-10T02:30:51;8.31;54.01
68511;SHT31;55512;50.102;19.958;2023-05-10T02:33:18;8.30;54.03
68511;SHT31;55512;50.102;19.958;2023-05-10T02:35:46;8.30;54.16
68511;SHT31;55512;50.102;19.958;2023-05-10T02:38:13;8.27;54.20
68511;SHT31;55512;50.102;19.958;2023-05-10T02:40:40;8.26;54.29
68511;SHT31;55512;50.102;19.958;2023-05-10T02:43:09;8.24;54.27
68511;SHT31;55512;50.102;19.958;2023-05-10T02:45:39;8.23;54.31
68511;SHT31;55512;50.102;19.958;2023-05-10T02:48:07;8.21;54.39
68511;SHT31;55512;50.102;19.958;2023-05-10T02:50:33;8.19;54.70
68511;SHT31;55512;50.102;19.958;2023-05-10T02:53:01;8.18;54.67
68511;SHT31;55512;50.102;19.958;2023-05-10T02:55:36;8.17;54.69
68511;SHT31;55512;50.102;19.958;2023-05-10T02:58:05;8.18;54.80
68511;SHT31;55512;50.102;19.958;2023-05-10T03:00:31;8.15;54.72
68511;SHT31;55512;50.102;19.958;2023-05-10T03:02:57;8.15;54.69
68511;SHT31;55512;50.102;19.958;2023-05-10T03:05:23;8.14;54.72
68511;SHT31;55512;50.102;19.958;2023-05-10T03:07:48;8.13;54.84
68511;SHT31;55512;50.102;19.958;2023-05-10T03:10:16;8.11;54.90
68511;SHT31;55512;50.102;19.958;2023-05-10T03:12:57;8.09;55.01
68511;SHT31;55512;50.102;19.958;2023-05-10T03:18:46;8.06;55.16
68511;SHT31;55512;50.102;19.958;2023-05-10T03:21:19;8.05;55.15
68511;SHT31;55512;50.102;19.958;2023-05-10T03:23:52;8.06;55.26
68511;SHT31;55512;50.102;19.958;2023-05-10T03:26:27;8.06;55.25
68511;SHT31;55512;50.102;19.958;2023-05-10T03:28:54;8.06;55.39
68511;SHT31;55512;50.102;19.958;2023-05-10T03:31:23;8.07;55.38
68511;SHT31;55512;50.102;19.958;2023-05-10T03:33:50;8.08;55.35
68511;SHT31;55512;50.102;19.958;2023-05-10T03:36:17;8.10;55.40
68511;SHT31;55512;50.102;19.958;2023-05-10T03:38:44;8.11;55.43
68511;SHT31;55512;50.102;19.958;2023-05-10T03:41:10;8.12;55.48
68511;SHT31;55512;50.102;19.958;2023-05-10T03:43:36;8.13;55.50
68511;SHT31;55512;50.102;19.958;2023-05-10T03:46:04;8.14;55.54
68511;SHT31;55512;50.102;19.958;2023-05-10T03:48:31;8.17;55.50
68511;SHT31;55512;50.102;19.958;2023-05-10T03:50:57;8.20;55.55
68511;SHT31;55512;50.102;19.958;2023-05-10T03:53:23;8.22;55.64
68511;SHT31;55512;50.102;19.958;2023-05-10T03:55:48;8.27;55.72
68511;SHT31;55512;50.102;19.958;2023-05-10T03:58:14;8.32;55.80
68511;SHT31;55512;50.102;19.958;2023-05-10T04:00:40;8.37;55.64
68511;SHT31;55512;50.102;19.958;2023-05-10T04:03:10;8.42;55.57
68511;SHT31;55512;50.102;19.958;2023-05-10T04:05:36;8.48;55.47
68511;SHT31;55512;50.102;19.958;2023-05-10T04:08:02;8.52;55.40
68511;SHT31;55512;50.102;19.958;2023-05-10T04:10:29;8.55;55.32
68511;SHT31;55512;50.102;19.958;2023-05-10T04:12:55;8.60;55.32
68511;SHT31;55512;50.102;19.958;2023-05-10T04:15:22;8.66;55.27
68511;SHT31;55512;50.102;19.958;2023-05-10T04:17:48;8.70;55.20
68511;SHT31;55512;50.102;19.958;2023-05-10T04:20:15;8.75;55.19
68511;SHT31;55512;50.102;19.958;2023-05-10T04:22:41;8.81;55.16
68511;SHT31;55512;50.102;19.958;2023-05-10T04:25:06;8.88;55.10
68511;SHT31;55512;50.102;19.958;2023-05-10T04:27:33;8.92;55.09
68511;SHT31;55512;50.102;19.958;2023-05-10T04:29:58;8.97;55.09
68511;SHT31;55512;50.102;19.958;2023-05-10T04:32:24;9.03;55.01
68511;SHT31;55512;50.102;19.958;2023-05-10T04:34:49;9.08;55.04
68511;SHT31;55512;50.102;19.958;2023-05-10T04:37:16;9.12;54.93
68511;SHT31;55512;50.102;19.958;2023-05-10T04:39:42;9.18;54.98
68511;SHT31;55512;50.102;19.958;2023-05-10T04:42:08;9.23;55.00
68511;SHT31;55512;50.102;19.958;2023-05-10T04:44:33;9.29;55.00
68511;SHT31;55512;50.102;19.958;2023-05-10T04:46:59;9.36;55.07
68511;SHT31;55512;50.102;19.958;2023-05-10T04:49:26;9.42;55.06
68511;SHT31;55512;50.102;19.958;2023-05-10T04:51:51;9.48;55.08
68511;SHT31;55512;50.102;19.958;2023-05-10T04:54:16;9.54;55.09
68511;SHT31;55512;50.102;19.958;2023-05-10T04:56:42;9.60;55.00
68511;SHT31;55512;50.102;19.958;2023-05-10T04:59:07;9.67;55.01
68511;SHT31;55512;50.102;19.958;2023-05-10T05:01:33;9.74;54.96
68511;SHT31;55512;50.102;19.958;2023-05-10T05:03:58;9.80;54.83
68511;SHT31;55512;50.102;19.958;2023-05-10T05:06:24;9.87;54.71
68511;SHT31;55512;50.102;19.958;2023-05-10T05:08:50;9.92;54.70
68511;SHT31;55512;50.102;19.958;2023-05-10T05:11:17;9.99;54.60
68511;SHT31;55512;50.102;19.958;2023-05-10T05:13:42;10.06;54.49
68511;SHT31;55512;50.102;19.958;2023-05-10T05:16:08;10.13;54.40
68511;SHT31;55512;50.102;19.958;2023-05-10T05:18:34;10.19;54.32
68511;SHT31;55512;50.102;19.958;2023-05-10T05:20:59;10.26;54.27
68511;SHT31;55512;50.102;19.958;2023-05-10T05:23:25;10.35;54.05
68511;SHT31;55512;50.102;19.958;2023-05-10T05:25:52;10.41;53.90
68511;SHT31;55512;50.102;19.958;2023-05-10T05:28:19;10.48;53.79
68511;SHT31;55512;50.102;19.958;2023-05-10T05:30:45;10.55;53.70
68511;SHT31;55512;50.102;19.958;2023-05-10T05:33:12;10.61;53.60
68511;SHT31;55512;50.102;19.958;2023-05-10T05:35:39;10.70;53.50
68511;SHT31;55512;50.102;19.958;2023-05-10T05:38:04;10.78;53.48
68511;SHT31;55512;50.102;19.958;2023-05-10T05:40:30;10.85;53.39
68511;SHT31;55512;50.102;19.958;2023-05-10T05:42:55;10.93;53.28
68511;SHT31;55512;50.102;19.958;2023-05-10T05:45:21;11.00;53.21
68511;SHT31;55512;50.102;19.958;2023-05-10T05:47:46;11.07;53.15
68511;SHT31;55512;50.102;19.958;2023-05-10T05:50:12;11.16;53.00
68511;SHT31;55512;50.102;19.958;2023-05-10T05:52:38;11.23;52.90
68511;SHT31;55512;50.102;19.958;2023-05-10T05:55:03;11.29;52.89
68511;SHT31;55512;50.102;19.958;2023-05-10T05:57:29;11.37;52.83
68511;SHT31;55512;50.102;19.958;2023-05-10T05:59:55;11.44;52.66
68511;SHT31;55512;50.102;19.958;2023-05-10T06:02:20;11.51;52.47
68511;SHT31;55512;50.102;19.958;2023-05-10T06:04:46;11.59;52.32
68511;SHT31;55512;50.102;19.958;2023-05-10T06:07:11;11.67;52.30
68511;SHT31;55512;50.102;19.958;2023-05-10T06:09:37;11.75;52.24
68511;SHT31;55512;50.102;19.958;2023-05-10T06:12:02;11.81;52.47
68511;SHT31;55512;50.102;19.958;2023-05-10T06:14:28;11.87;52.35
68511;SHT31;55512;50.102;19.958;2023-05-10T06:16:53;11.94;52.26
68511;SHT31;55512;50.102;19.958;2023-05-10T06:19:19;12.02;52.11
68511;SHT31;55512;50.102;19.958;2023-05-10T06:21:44;12.08;51.97
68511;SHT31;55512;50.102;19.958;2023-05-10T06:24:10;12.15;51.85
68511;SHT31;55512;50.102;19.958;2023-05-10T06:26:35;12.23;51.67
68511;SHT31;55512;50.102;19.958;2023-05-10T06:29:01;12.30;51.57
68511;SHT31;55512;50.102;19.958;2023-05-10T06:31:27;12.37;51.48
68511;SHT31;55512;50.102;19.958;2023-05-10T06:33:53;12.43;51.31
68511;SHT31;55512;50.102;19.958;2023-05-10T06:36:18;12.50;51.25
68511;SHT31;55512;50.102;19.958;2023-05-10T06:38:44;12.56;51.28
68511;SHT31;55512;50.102;19.958;2023-05-10T06:41:10;12.64;51.22
68511;SHT31;55512;50.102;19.958;2023-05-10T06:43:35;12.72;51.17
68511;SHT31;55512;50.102;19.958;2023-05-10T06:46:04;12.80;50.98
68511;SHT31;55512;50.102;19.958;2023-05-10T06:48:31;12.89;50.78
68511;SHT31;55512;50.102;19.958;2023-05-10T06:50:57;12.98;50.70
68511;SHT31;55512;50.102;19.958;2023-05-10T06:53:22;13.08;50.49
68511;SHT31;55512;50.102;19.958;2023-05-10T06:55:48;13.15;50.19
68511;SHT31;55512;50.102;19.958;2023-05-10T06:58:14;13.22;50.15
68511;SHT31;55512;50.102;19.958;2023-05-10T07:00:40;13.32;50.21
68511;SHT31;55512;50.102;19.958;2023-05-10T07:03:08;13.41;49.90
68511;SHT31;55512;50.102;19.958;2023-05-10T07:05:35;13.48;49.72
68511;SHT31;55512;50.102;19.958;2023-05-10T07:10:34;13.63;49.52
68511;SHT31;55512;50.102;19.958;2023-05-10T07:12:59;13.71;49.35
68511;SHT31;55512;50.102;19.958;2023-05-10T07:15:26;13.77;49.13
68511;SHT31;55512;50.102;19.958;2023-05-10T07:17:51;13.84;49.06
68511;SHT31;55512;50.102;19.958;2023-05-10T07:20:17;13.92;49.10
68511;SHT31;55512;50.102;19.958;2023-05-10T07:22:43;14.01;49.19
68511;SHT31;55512;50.102;19.958;2023-05-10T07:25:09;14.09;48.82
68511;SHT31;55512;50.102;19.958;2023-05-10T07:27:34;14.16;48.58
68511;SHT31;55512;50.102;19.958;2023-05-10T07:30:00;14.25;48.53
68511;SHT31;55512;50.102;19.958;2023-05-10T07:32:26;14.33;48.43
68511;SHT31;55512;50.102;19.958;2023-05-10T07:34:52;14.41;48.29
68511;SHT31;55512;50.102;19.958;2023-05-10T07:37:17;14.49;48.17
68511;SHT31;55512;50.102;19.958;2023-05-10T07:39:43;14.58;48.00
68511;SHT31;55512;50.102;19.958;2023-05-10T07:42:08;14.64;47.87
68511;SHT31;55512;50.102;19.958;2023-05-10T07:44:34;14.72;47.70
68511;SHT31;55512;50.102;19.958;2023-05-10T07:46:59;14.79;47.68
68511;SHT31;55512;50.102;19.958;2023-05-10T07:49:25;14.87;47.57
68511;SHT31;55512;50.102;19.958;2023-05-10T07:51:51;14.94;47.47
68511;SHT31;55512;50.102;19.958;2023-05-10T07:54:16;15.02;47.41
68511;SHT31;55512;50.102;19.958;2023-05-10T07:56:42;15.10;47.39
68511;SHT31;55512;50.102;19.958;2023-05-10T07:59:14;15.19;47.40
68511;SHT31;55512;50.102;19.958;2023-05-10T08:01:42;15.27;47.38
68511;SHT31;55512;50.102;19.958;2023-05-10T08:04:08;15.35;47.26
68511;SHT31;55512;50.102;19.958;2023-05-10T08:06:34;15.44;47.17
68511;SHT31;55512;50.102;19.958;2023-05-10T08:09:00;15.54;47.02
68511;SHT31;55512;50.102;19.958;2023-05-10T08:11:26;15.63;46.90
68511;SHT31;55512;50.102;19.958;2023-05-10T08:13:53;15.72;46.51
68511;SHT31;55512;50.102;19.958;2023-05-10T08:16:19;15.82;46.17
68511;SHT31;55512;50.102;19.958;2023-05-10T08:18:45;15.91;46.21
68511;SHT31;55512;50.102;19.958;2023-05-10T08:21:11;16.00;45.87
68511;SHT31;55512;50.102;19.958;2023-05-10T08:23:38;16.08;45.26
68511;SHT31;55512;50.102;19.958;2023-05-10T08:26:04;16.17;44.87
68511;SHT31;55512;50.102;19.958;2023-05-10T08:28:30;16.26;44.95
68511;SHT31;55512;50.102;19.958;2023-05-10T08:30:56;16.35;44.87
68511;SHT31;55512;50.102;19.958;2023-05-10T08:33:21;16.44;44.72
68511;SHT31;55512;50.102;19.958;2023-05-10T08:35:47;16.55;43.81
68511;SHT31;55512;50.102;19.958;2023-05-10T08:38:12;16.64;42.98
68511;SHT31;55512;50.102;19.958;2023-05-10T08:40:39;16.72;42.79
68511;SHT31;55512;50.102;19.958;2023-05-10T08:43:08;16.82;42.64
68511;SHT31;55512;50.102;19.958;2023-05-10T08:45:37;16.90;42.29
68511;SHT31;55512;50.102;19.958;2023-05-10T08:48:10;16.99;42.03
68511;SHT31;55512;50.102;19.958;2023-05-10T08:50:37;17.08;41.79
68511;SHT31;55512;50.102;19.958;2023-05-10T08:53:06;17.17;41.64
68511;SHT31;55512;50.102;19.958;2023-05-10T08:55:36;17.26;41.40
68511;SHT31;55512;50.102;19.958;2023-05-10T08:58:04;17.36;41.17
68511;SHT31;55512;50.102;19.958;2023-05-10T09:00:31;17.44;40.88
68511;SHT31;55512;50.102;19.958;2023-05-10T09:02:58;17.53;40.30
68511;SHT31;55512;50.102;19.958;2023-05-10T09:05:25;17.60;39.71
68511;SHT31;55512;50.102;19.958;2023-05-10T09:07:51;17.66;39.02
68511;SHT31;55512;50.102;19.958;2023-05-10T09:10:18;17.71;37.84
68511;SHT31;55512;50.102;19.958;2023-05-10T09:12:45;17.76;38.10
68511;SHT31;55512;50.102;19.958;2023-05-10T09:15:14;17.84;38.06
68511;SHT31;55512;50.102;19.958;2023-05-10T09:17:42;17.92;38.08
68511;SHT31;55512;50.102;19.958;2023-05-10T09:20:09;18.00;37.98
68511;SHT31;55512;50.102;19.958;2023-05-10T09:22:35;18.09;37.77
68511;SHT31;55512;50.102;19.958;2023-05-10T09:25:08;18.17;37.39
68511;SHT31;55512;50.102;19.958;2023-05-10T09:27:36;18.23;37.23
68511;SHT31;55512;50.102;19.958;2023-05-10T09:30:04;18.29;37.24
68511;SHT31;55512;50.102;19.958;2023-05-10T09:32:37;18.36;37.10
68511;SHT31;55512;50.102;19.958;2023-05-10T09:35:11;18.44;37.13
68511;SHT31;55512;50.102;19.958;2023-05-10T09:37:39;18.52;36.82
68511;SHT31;55512;50.102;19.958;2023-05-10T09:40:16;18.59;36.69
68511;SHT31;55512;50.102;19.958;2023-05-10T09:45:26;18.76;36.25
68511;SHT31;55512;50.102;19.958;2023-05-10T09:47:55;18.84;35.71
68511;SHT31;55512;50.102;19.958;2023-05-10T09:50:22;18.87;35.63
68511;SHT31;55512;50.102;19.958;2023-05-10T09:55:16;19.00;35.35
68511;SHT31;55512;50.102;19.958;2023-05-10T09:57:46;19.08;35.29
68511;SHT31;55512;50.102;19.958;2023-05-10T10:00:19;19.15;34.89
68511;SHT31;55512;50.102;19.958;2023-05-10T10:02:58;19.23;34.87
68511;SHT31;55512;50.102;19.958;2023-05-10T10:05:28;19.29;34.69
68511;SHT31;55512;50.102;19.958;2023-05-10T10:07:58;19.33;34.51
68511;SHT31;55512;50.102;19.958;2023-05-10T10:10:26;19.39;34.43
68511;SHT31;55512;50.102;19.958;2023-05-10T10:12:53;19.44;34.17
68511;SHT31;55512;50.102;19.958;2023-05-10T10:15:20;19.49;33.58
68511;SHT31;55512;50.102;19.958;2023-05-10T10:17:48;19.52;33.31
68511;SHT31;55512;50.102;19.958;2023-05-10T10:20:15;19.58;33.43
68511;SHT31;55512;50.102;19.958;2023-05-10T10:22:42;19.65;33.41
68511;SHT31;55512;50.102;19.958;2023-05-10T10:25:09;19.71;33.11
68511;SHT31;55512;50.102;19.958;2023-05-10T10:33:26;19.87;32.45
68511;SHT31;55512;50.102;19.958;2023-05-10T10:36:04;19.90;32.01
68511;SHT31;55512;50.102;19.958;2023-05-10T10:41:11;19.99;31.95
68511;SHT31;55512;50.102;19.958;2023-05-10T10:47:23;20.13;31.66
68511;SHT31;55512;50.102;19.958;2023-05-10T10:52:39;20.23;31.29
68511;SHT31;55512;50.102;19.958;2023-05-10T10:55:12;20.29;31.57
68511;SHT31;55512;50.102;19.958;2023-05-10T10:57:50;20.35;31.24
68511;SHT31;55512;50.102;19.958;2023-05-10T11:00:32;20.43;31.36
68511;SHT31;55512;50.102;19.958;2023-05-10T11:03:08;20.51;31.14
68511;SHT31;55512;50.102;19.958;2023-05-10T11:05:42;20.60;31.08
68511;SHT31;55512;50.102;19.958;2023-05-10T11:13:48;20.80;30.09
68511;SHT31;55512;50.102;19.958;2023-05-10T11:21:27;20.98;29.39
68511;SHT31;55512;50.102;19.958;2023-05-10T11:23:58;21.05;29.36
68511;SHT31;55512;50.102;19.958;2023-05-10T11:26:29;21.09;28.97
68511;SHT31;55512;50.102;19.958;2023-05-10T11:28:57;21.14;28.79
68511;SHT31;55512;50.102;19.958;2023-05-10T11:31:26;21.20;28.32
68511;SHT31;55512;50.102;19.958;2023-05-10T11:33:57;21.25;27.99
68511;SHT31;55512;50.102;19.958;2023-05-10T11:36:28;21.32;28.27
68511;SHT31;55512;50.102;19.958;2023-05-10T11:38:58;21.39;27.91
68511;SHT31;55512;50.102;19.958;2023-05-10T11:41:23;21.46;27.85
68511;SHT31;55512;50.102;19.958;2023-05-10T11:43:52;21.54;27.71
68511;SHT31;55512;50.102;19.958;2023-05-10T11:46:20;21.52;27.46
68511;SHT31;55512;50.102;19.958;2023-05-10T11:48:52;21.42;27.79
68511;SHT31;55512;50.102;19.958;2023-05-10T11:51:24;21.32;27.77
68511;SHT31;55512;50.102;19.958;2023-05-10T11:53:52;21.38;28.08
68511;SHT31;55512;50.102;19.958;2023-05-10T11:56:20;21.42;28.08
68511;SHT31;55512;50.102;19.958;2023-05-10T11:58:51;21.54;28.69
68511;SHT31;55512;50.102;19.958;2023-05-10T12:01:20;21.65;28.92
68511;SHT31;55512;50.102;19.958;2023-05-10T12:03:48;21.75;29.16
68511;SHT31;55512;50.102;19.958;2023-05-10T12:06:15;21.86;28.50
68511;SHT31;55512;50.102;19.958;2023-05-10T12:08:46;21.98;28.06
68511;SHT31;55512;50.102;19.958;2023-05-10T12:11:17;22.07;28.10
68511;SHT31;55512;50.102;19.958;2023-05-10T12:13:43;22.19;28.43
68511;SHT31;55512;50.102;19.958;2023-05-10T12:16:16;22.31;28.31
68511;SHT31;55512;50.102;19.958;2023-05-10T12:18:57;22.40;27.93
68511;SHT31;55512;50.102;19.958;2023-05-10T12:21:25;22.51;27.76
68511;SHT31;55512;50.102;19.958;2023-05-10T12:23:53;22.62;27.95
68511;SHT31;55512;50.102;19.958;2023-05-10T12:26:26;22.71;27.73
68511;SHT31;55512;50.102;19.958;2023-05-10T12:28:54;22.80;27.64
68511;SHT31;55512;50.102;19.958;2023-05-10T12:31:20;22.89;27.59
68511;SHT31;55512;50.102;19.958;2023-05-10T12:33:46;22.95;27.31
68511;SHT31;55512;50.102;19.958;2023-05-10T12:36:14;22.98;27.38
68511;SHT31;55512;50.102;19.958;2023-05-10T12:38:42;23.07;27.49
68511;SHT31;55512;50.102;19.958;2023-05-10T12:41:10;23.17;27.52
68511;SHT31;55512;50.102;19.958;2023-05-10T12:43:39;23.28;27.47
68511;SHT31;55512;50.102;19.958;2023-05-10T12:46:09;23.38;27.28
68511;SHT31;55512;50.102;19.958;2023-05-10T12:48:42;23.46;26.93
68511;SHT31;55512;50.102;19.958;2023-05-10T12:51:09;23.50;26.74
68511;SHT31;55512;50.102;19.958;2023-05-10T12:53:40;23.58;26.68
68511;SHT31;55512;50.102;19.958;2023-05-10T12:56:06;23.66;26.62
68511;SHT31;55512;50.102;19.958;2023-05-10T12:58:32;23.69;26.76
68511;SHT31;55512;50.102;19.958;2023-05-10T13:00:58;23.73;26.89
68511;SHT31;55512;50.102;19.958;2023-05-10T13:03:24;23.80;26.69
68511;SHT31;55512;50.102;19.958;2023-05-10T13:05:50;23.86;26.67
68511;SHT31;55512;50.102;19.958;2023-05-10T13:08:16;23.93;26.43
68511;SHT31;55512;50.102;19.958;2023-05-10T13:10:41;24.02;26.32
68511;SHT31;55512;50.102;19.958;2023-05-10T13:13:07;24.06;26.06
68511;SHT31;55512;50.102;19.958;2023-05-10T13:15:33;24.15;25.96
68511;SHT31;55512;50.102;19.958;2023-05-10T13:17:59;24.19;25.76
68511;SHT31;55512;50.102;19.958;2023-05-10T13:20:25;24.20;25.77
68511;SHT31;55512;50.102;19.958;2023-05-10T13:22:51;24.29;25.83
68511;SHT31;55512;50.102;19.958;2023-05-10T13:25:17;24.40;25.90
68511;SHT31;55512;50.102;19.958;2023-05-10T13:27:43;24.54;26.00
68511;SHT31;55512;50.102;19.958;2023-05-10T13:30:08;24.67;25.79
68511;SHT31;55512;50.102;19.958;2023-05-10T13:32:36;24.78;25.78
68511;SHT31;55512;50.102;19.958;2023-05-10T13:35:02;24.90;25.46
68511;SHT31;55512;50.102;19.958;2023-05-10T13:37:29;24.96;25.58
68511;SHT31;55512;50.102;19.958;2023-05-10T13:39:56;25.11;25.57
68511;SHT31;55512;50.102;19.958;2023-05-10T13:42:22;25.24;25.32
68511;SHT31;55512;50.102;19.958;2023-05-10T13:44:48;25.39;25.46
68511;SHT31;55512;50.102;19.958;2023-05-10T13:47:15;25.54;25.57
68511;SHT31;55512;50.102;19.958;2023-05-10T13:49:40;25.71;25.23
68511;SHT31;55512;50.102;19.958;2023-05-10T13:52:06;25.81;24.70
68511;SHT31;55512;50.102;19.958;2023-05-10T13:54:36;25.83;24.60
68511;SHT31;55512;50.102;19.958;2023-05-10T14:00:40;26.02;24.41
68511;SHT31;55512;50.102;19.958;2023-05-10T14:03:05;26.14;24.33
68511;SHT31;55512;50.102;19.958;2023-05-10T14:05:32;26.28;24.37
68511;SHT31;55512;50.102;19.958;2023-05-10T14:07:58;26.46;24.37
68511;SHT31;55512;50.102;19.958;2023-05-10T14:10:23;26.56;24.08
68511;SHT31;55512;50.102;19.958;2023-05-10T14:12:49;26.67;23.96
68511;SHT31;55512;50.102;19.958;2023-05-10T14:15:15;26.81;24.02
68511;SHT31;55512;50.102;19.958;2023-05-10T14:17:41;26.97;24.04
68511;SHT31;55512;50.102;19.958;2023-05-10T14:20:07;27.06;23.72
68511;SHT31;55512;50.102;19.958;2023-05-10T14:22:33;27.16;23.72
68511;SHT31;55512;50.102;19.958;2023-05-10T14:25:00;27.20;23.33
68511;SHT31;55512;50.102;19.958;2023-05-10T14:27:26;27.15;23.31
68511;SHT31;55512;50.102;19.958;2023-05-10T14:29:51;27.26;23.21
68511;SHT31;55512;50.102;19.958;2023-05-10T14:32:18;27.47;23.16
68511;SHT31;55512;50.102;19.958;2023-05-10T14:34:44;27.69;22.77
68511;SHT31;55512;50.102;19.958;2023-05-10T14:37:10;28.08;22.94
68511;SHT31;55512;50.102;19.958;2023-05-10T14:39:39;28.86;22.63
68511;SHT31;55512;50.102;19.958;2023-05-10T14:42:05;30.20;21.69
68511;SHT31;55512;50.102;19.958;2023-05-10T14:44:30;32.01;20.48
68511;SHT31;55512;50.102;19.958;2023-05-10T14:46:56;33.86;19.61
68511;SHT31;55512;50.102;19.958;2023-05-10T14:49:22;35.63;18.91
68511;SHT31;55512;50.102;19.958;2023-05-10T14:51:50;37.18;17.99
68511;SHT31;55512;50.102;19.958;2023-05-10T14:57:31;40.15;16.19
68511;SHT31;55512;50.102;19.958;2023-05-10T14:59:57;40.95;15.85
68511;SHT31;55512;50.102;19.958;2023-05-10T15:02:23;42.03;15.52
68511;SHT31;55512;50.102;19.958;2023-05-10T15:04:48;43.01;14.96
68511;SHT31;55512;50.102;19.958;2023-05-10T15:07:14;43.63;14.36
68511;SHT31;55512;50.102;19.958;2023-05-10T15:09:41;44.25;14.03
68511;SHT31;55512;50.102;19.958;2023-05-10T15:12:06;44.80;13.74
68511;SHT31;55512;50.102;19.958;2023-05-10T15:14:32;45.35;13.36
68511;SHT31;55512;50.102;19.958;2023-05-10T15:16:58;45.78;13.12
68511;SHT31;55512;50.102;19.958;2023-05-10T15:19:24;45.65;12.61
68511;SHT31;55512;50.102;19.958;2023-05-10T15:21:50;45.48;12.74
68511;SHT31;55512;50.102;19.958;2023-05-10T15:24:16;45.75;12.49
68511;SHT31;55512;50.102;19.958;2023-05-10T15:26:41;45.90;12.38
68511;SHT31;55512;50.102;19.958;2023-05-10T15:29:06;46.07;12.32
68511;SHT31;55512;50.102;19.958;2023-05-10T15:31:32;46.21;12.24
68511;SHT31;55512;50.102;19.958;2023-05-10T15:34:00;46.31;12.11
68511;SHT31;55512;50.102;19.958;2023-05-10T15:36:26;46.33;12.16
68511;SHT31;55512;50.102;19.958;2023-05-10T15:38:53;46.09;11.68
68511;SHT31;55512;50.102;19.958;2023-05-10T15:41:19;45.51;11.91
68511;SHT31;55512;50.102;19.958;2023-05-10T15:43:45;45.33;12.04
68511;SHT31;55512;50.102;19.958;2023-05-10T15:46:11;45.23;12.00
68511;SHT31;55512;50.102;19.958;2023-05-10T15:48:36;45.22;11.99
68511;SHT31;55512;50.102;19.958;2023-05-10T15:51:04;45.13;11.97
68511;SHT31;55512;50.102;19.958;2023-05-10T15:53:29;45.05;11.86
68511;SHT31;55512;50.102;19.958;2023-05-10T15:55:55;44.77;11.92
68511;SHT31;55512;50.102;19.958;2023-05-10T15:58:21;44.34;12.07
68511;SHT31;55512;50.102;19.958;2023-05-10T16:00:46;44.19;12.11
68511;SHT31;55512;50.102;19.958;2023-05-10T16:03:12;44.03;12.15
68511;SHT31;55512;50.102;19.958;2023-05-10T16:05:37;43.82;12.14
68511;SHT31;55512;50.102;19.958;2023-05-10T16:08:03;43.58;12.16
68511;SHT31;55512;50.102;19.958;2023-05-10T16:10:30;43.33;12.20
68511;SHT31;55512;50.102;19.958;2023-05-10T16:12:57;43.09;12.33
68511;SHT31;55512;50.102;19.958;2023-05-10T16:15:23;42.92;12.41